sensor_id;sensor_type;location;lat;lon;timestamp;pressure;altitude;pressure_sealevel;temperature;humidity
62655;BME280;48717;55.556;37.816;2023-05-11T00:01:07;100044.94;;;11.52;38.43
62655;BME280;48717;55.556;37.816;2023-05-11T00:03:35;100059.06;;;11.56;43.53
62655;BME280;48717;55.556;37.816;2023-05-11T00:06:02;100049.38;;;11.39;43.63
62655;BME280;48717;55.556;37.816;2023-05-11T00:08:30;100045.84;;;11.28;44.71
62655;BME280;48717;55.556;37.816;2023-05-11T00:10:57;100059.91;;;11.33;43.31
62655;BME280;48717;55.556;37.816;2023-05-11T00:13:27;100061.69;;;11.34;40.91
62655;BME280;48717;55.556;37.816;2023-05-11T00:15:54;100052.88;;;11.32;40.97
62655;BME280;48717;55.556;37.816;2023-05-11T00:18:21;100061.69;;;11.37;42.61
62655;BME280;48717;55.556;37.816;2023-05-11T00:20:49;100061.69;;;11.40;42.25
62655;BME280;48717;55.556;37.816;2023-05-11T00:23:16;100038.81;;;11.33;42.50
62655;BME280;48717;55.556;37.816;2023-05-11T00:25:43;100051.13;;;11.32;42.52
62655;BME280;48717;55.556;37.816;2023-05-11T00:28:10;100055.53;;;11.38;42.42
62655;BME280;48717;55.556;37.816;2023-05-11T00:30:39;100053.75;;;11.39;42.03
62655;BME280;48717;55.556;37.816;2023-05-11T00:33:06;100060.81;;;11.41;43.02
62655;BME280;48717;55.556;37.816;2023-05-11T00:35:33;100054.66;;;11.41;43.02
62655;BME280;48717;55.556;37.816;2023-05-11T00:38:00;100052.00;;;11.44;41.71
62655;BME280;48717;55.556;37.816;2023-05-11T00:40:30;100047.59;;;11.44;41.11
62655;BME280;48717;55.556;37.816;2023-05-11T00:42:57;100047.59;;;11.41;41.07
62655;BME280;48717;55.556;37.816;2023-05-11T00:45:25;100061.69;;;11.49;41.92
62655;BME280;48717;55.556;37.816;2023-05-11T00:47:52;100047.59;;;11.44;43.06
62655;BME280;48717;55.556;37.816;2023-05-11T00:50:20;100056.41;;;11.49;41.49
62655;BME280;48717;55.556;37.816;2023-05-11T00:52:47;100044.09;;;11.39;42.36
62655;BME280;48717;55.556;37.816;2023-05-11T00:55:15;100054.63;;;11.42;42.20
62655;BME280;48717;55.556;37.816;2023-05-11T00:57:47;100065.22;;;11.39;41.09
62655;BME280;48717;55.556;37.816;2023-05-11T01:00:14;100055.53;;;11.33;41.61
62655;BME280;48717;55.556;37.816;2023-05-11T01:02:42;100075.75;;;11.33;41.73
62655;BME280;48717;55.556;37.816;2023-05-11T01:05:10;100066.97;;;11.31;43.38
62655;BME280;48717;55.556;37.816;2023-05-11T01:10:16;100056.41;;;11.21;42.28
62655;BME280;48717;55.556;37.816;2023-05-11T01:15:49;100076.63;;;11.21;42.87
62655;BME280;48717;55.556;37.816;2023-05-11T01:18:41;100072.25;;;11.18;43.50
62655;BME280;48717;55.556;37.816;2023-05-11T01:21:14;100077.53;;;11.14;44.23
62655;BME280;48717;55.556;37.816;2023-05-11T01:32:25;100046.72;;;10.94;44.50
62655;BME280;48717;55.556;37.816;2023-05-11T01:35:16;100080.13;;;11.04;44.03
62655;BME280;48717;55.556;37.816;2023-05-11T01:37:48;100070.47;;;10.95;44.36
62655;BME280;48717;55.556;37.816;2023-05-11T01:40:17;100082.81;;;11.03;44.38
62655;BME280;48717;55.556;37.816;2023-05-11T01:43:06;100062.53;;;10.91;44.09
62655;BME280;48717;55.556;37.816;2023-05-11T01:45:36;100065.19;;;10.86;44.24
62655;BME280;48717;55.556;37.816;2023-05-11T01:48:06;100077.50;;;10.96;44.49
62655;BME280;48717;55.556;37.816;2023-05-11T01:50:36;100072.19;;;10.93;44.32
62655;BME280;48717;55.556;37.816;2023-05-11T01:53:05;100078.41;;;10.99;43.99
62655;BME280;48717;55.556;37.816;2023-05-11T01:55:33;100069.56;;;10.93;44.18
62655;BME280;48717;55.556;37.816;2023-05-11T01:58:03;100087.19;;;10.96;43.85
62655;BME280;48717;55.556;37.816;2023-05-11T02:00:32;100068.72;;;10.94;44.25
62655;BME280;48717;55.556;37.816;2023-05-11T02:03:00;100061.66;;;10.90;44.12
62655;BME280;48717;55.556;37.816;2023-05-11T02:05:29;100067.84;;;10.95;44.04
62655;BME280;48717;55.556;37.816;2023-05-11T02:07:58;100068.72;;;11.04;44.00
62655;BME280;48717;55.556;37.816;2023-05-11T02:10:27;100059.03;;;11.00;44.14
62655;BME280;48717;55.556;37.816;2023-05-11T02:12:55;100068.69;;;11.07;43.37
62655;BME280;48717;55.556;37.816;2023-05-11T02:15:25;100074.88;;;11.10;43.29
62655;BME280;48717;55.556;37.816;2023-05-11T02:17:55;100074.00;;;11.15;43.02
62655;BME280;48717;55.556;37.816;2023-05-11T02:20:24;100052.88;;;11.07;42.71
62655;BME280;48717;55.556;37.816;2023-05-11T02:22:53;100046.72;;;11.11;43.10
62655;BME280;48717;55.556;37.816;2023-05-11T02:25:21;100059.03;;;11.25;43.58
62655;BME280;48717;55.556;37.816;2023-05-11T02:27:50;100044.09;;;11.17;43.29
62655;BME280;48717;55.556;37.816;2023-05-11T02:30:18;100054.66;;;11.30;43.93
62655;BME280;48717;55.556;37.816;2023-05-11T02:32:50;100059.03;;;11.40;42.74
62655;BME280;48717;55.556;37.816;2023-05-11T02:35:24;100058.19;;;11.38;43.25
62655;BME280;48717;55.556;37.816;2023-05-11T02:37:57;100065.19;;;11.42;43.34
62655;BME280;48717;55.556;37.816;2023-05-11T02:40:29;100070.50;;;11.48;43.53
62655;BME280;48717;55.556;37.816;2023-05-11T02:43:08;100066.97;;;11.49;43.92
62655;BME280;48717;55.556;37.816;2023-05-11T02:45:42;100068.72;;;11.54;43.82
62655;BME280;48717;55.556;37.816;2023-05-11T02:48:18;100072.25;;;11.56;43.64
62655;BME280;48717;55.556;37.816;2023-05-11T02:50:50;100053.75;;;11.51;43.24
62655;BME280;48717;55.556;37.816;2023-05-11T02:53:18;100057.28;;;11.52;43.74
62655;BME280;48717;55.556;37.816;2023-05-11T02:55:47;100070.47;;;11.61;43.50
62655;BME280;48717;55.556;37.816;2023-05-11T02:58:17;100067.81;;;11.67;44.31
62655;BME280;48717;55.556;37.816;2023-05-11T03:00:50;100077.50;;;11.71;43.95
62655;BME280;48717;55.556;37.816;2023-05-11T03:03:17;100075.72;;;11.77;43.23
62655;BME280;48717;55.556;37.816;2023-05-11T03:05:45;100079.25;;;11.79;44.04
62655;BME280;48717;55.556;37.816;2023-05-11T03:08:13;100083.66;;;11.81;43.36
62655;BME280;48717;55.556;37.816;2023-05-11T03:10:41;100081.00;;;11.83;43.71
62655;BME280;48717;55.556;37.816;2023-05-11T03:13:08;100080.09;;;11.88;43.64
62655;BME280;48717;55.556;37.816;2023-05-11T03:15:37;100082.78;;;11.87;43.39
62655;BME280;48717;55.556;37.816;2023-05-11T03:18:05;100070.44;;;11.83;42.49
62655;BME280;48717;55.556;37.816;2023-05-11T03:20:35;100084.53;;;11.88;42.92
62655;BME280;48717;55.556;37.816;2023-05-11T03:23:04;100076.59;;;11.90;42.99
62655;BME280;48717;55.556;37.816;2023-05-11T03:25:32;100096.81;;;12.05;43.05
62655;BME280;48717;55.556;37.816;2023-05-11T03:28:00;100079.22;;;12.00;43.40
62655;BME280;48717;55.556;37.816;2023-05-11T03:30:30;100089.78;;;12.10;43.39
62655;BME280;48717;55.556;37.816;2023-05-11T03:32:58;100073.03;;;12.03;43.16
62655;BME280;48717;55.556;37.816;2023-05-11T03:35:26;100091.50;;;12.20;43.11
62655;BME280;48717;55.556;37.816;2023-05-11T03:37:56;100094.16;;;12.22;42.97
62655;BME280;48717;55.556;37.816;2023-05-11T03:40:26;100098.56;;;12.18;42.81
62655;BME280;48717;55.556;37.816;2023-05-11T03:42:57;100091.47;;;12.30;42.54
62655;BME280;48717;55.556;37.816;2023-05-11T03:45:27;100100.25;;;12.38;42.50
62655;BME280;48717;55.556;37.816;2023-05-11T03:47:56;100101.09;;;12.43;42.46
62655;BME280;48717;55.556;37.816;2023-05-11T03:50:25;100104.59;;;12.50;42.11
62655;BME280;48717;55.556;37.816;2023-05-11T03:52:54;100106.34;;;12.56;42.50
62655;BME280;48717;55.556;37.816;2023-05-11T03:55:22;100110.75;;;12.63;41.75
62655;BME280;48717;55.556;37.816;2023-05-11T03:57:49;100108.94;;;12.70;41.64
62655;BME280;48717;55.556;37.816;2023-05-11T04:00:17;100104.50;;;12.75;41.71
62655;BME280;48717;55.556;37.816;2023-05-11T04:02:46;100109.78;;;12.73;41.03
62655;BME280;48717;55.556;37.816;2023-05-11T04:05:13;100112.38;;;12.86;41.38
62655;BME280;48717;55.556;37.816;2023-05-11T04:07:43;100106.19;;;12.88;41.42
62655;BME280;48717;55.556;37.816;2023-05-11T04:10:11;100103.50;;;12.93;41.26
62655;BME280;48717;55.556;37.816;2023-05-11T04:12:38;100114.97;;;12.93;40.91
62655;BME280;48717;55.556;37.816;2023-05-11T04:15:05;100120.22;;;13.01;41.26
62655;BME280;48717;55.556;37.816;2023-05-11T04:17:33;100114.06;;;12.96;41.56
62655;BME280;48717;55.556;37.816;2023-05-11T04:20:00;100094.75;;;12.83;41.65
62655;BME280;48717;55.556;37.816;2023-05-11T04:22:30;100119.38;;;12.96;41.70
62655;BME280;48717;55.556;37.816;2023-05-11T04:24:57;100109.69;;;12.95;41.69
62655;BME280;48717;55.556;37.816;2023-05-11T04:27:24;100120.25;;;12.98;41.93
62655;BME280;48717;55.556;37.816;2023-05-11T04:29:51;100122.84;;;13.01;41.83
62655;BME280;48717;55.556;37.816;2023-05-11T04:32:18;100120.19;;;13.06;41.65
62655;BME280;48717;55.556;37.816;2023-05-11T04:34:45;100128.13;;;13.08;41.67
62655;BME280;48717;55.556;37.816;2023-05-11T04:37:15;100120.22;;;13.01;41.80
62655;BME280;48717;55.556;37.816;2023-05-11T04:39:42;100128.09;;;13.11;41.98
62655;BME280;48717;55.556;37.816;2023-05-11T04:42:10;100129.88;;;13.09;41.76
62655;BME280;48717;55.556;37.816;2023-05-11T04:44:37;100112.25;;;13.09;42.23
62655;BME280;48717;55.556;37.816;2023-05-11T04:47:05;100126.22;;;13.28;41.51
62655;BME280;48717;55.556;37.816;2023-05-11T04:49:33;100109.47;;;13.25;41.66
62655;BME280;48717;55.556;37.816;2023-05-11T04:52:00;100135.78;;;13.47;41.31
62655;BME280;48717;55.556;37.816;2023-05-11T04:54:28;100135.72;;;13.59;41.14
62655;BME280;48717;55.556;37.816;2023-05-11T04:56:57;100143.50;;;13.79;41.34
62655;BME280;48717;55.556;37.816;2023-05-11T04:59:24;100105.25;;;14.07;41.07
62655;BME280;48717;55.556;37.816;2023-05-11T05:01:51;100118.78;;;14.59;39.85
62655;BME280;48717;55.556;37.816;2023-05-11T05:04:18;100125.84;;;15.26;39.34
62655;BME280;48717;55.556;37.816;2023-05-11T05:06:45;100124.00;;;15.85;38.03
62655;BME280;48717;55.556;37.816;2023-05-11T05:09:14;100116.97;;;16.31;37.25
62655;BME280;48717;55.556;37.816;2023-05-11T05:11:41;100118.16;;;16.58;36.63
62655;BME280;48717;55.556;37.816;2023-05-11T05:14:08;100102.41;;;16.48;36.04
62655;BME280;48717;55.556;37.816;2023-05-11T05:16:36;100104.34;;;16.39;36.14
62655;BME280;48717;55.556;37.816;2023-05-11T05:19:03;100108.16;;;16.26;36.54
62655;BME280;48717;55.556;37.816;2023-05-11T05:21:31;100101.28;;;16.15;36.32
62655;BME280;48717;55.556;37.816;2023-05-11T05:23:58;100099.53;;;16.14;36.40
62655;BME280;48717;55.556;37.816;2023-05-11T05:26:25;100104.53;;;16.30;36.33
62655;BME280;48717;55.556;37.816;2023-05-11T05:28:53;100106.63;;;16.60;36.08
62655;BME280;48717;55.556;37.816;2023-05-11T05:31:20;100101.47;;;16.91;36.01
62655;BME280;48717;55.556;37.816;2023-05-11T05:33:47;100102.19;;;17.00;35.48
62655;BME280;48717;55.556;37.816;2023-05-11T05:36:16;100097.66;;;17.05;36.05
62655;BME280;48717;55.556;37.816;2023-05-11T05:38:43;100101.94;;;17.12;36.08
62655;BME280;48717;55.556;37.816;2023-05-11T05:41:10;100105.38;;;17.16;36.08
62655;BME280;48717;55.556;37.816;2023-05-11T05:43:40;100095.84;;;17.07;36.51
62655;BME280;48717;55.556;37.816;2023-05-11T05:46:07;100105.63;;;17.03;36.95
62655;BME280;48717;55.556;37.816;2023-05-11T05:48:35;100107.16;;;16.76;35.27
62655;BME280;48717;55.556;37.816;2023-05-11T05:51:02;100105.78;;;16.56;35.64
62655;BME280;48717;55.556;37.816;2023-05-11T05:53:29;100099.84;;;16.43;36.07
62655;BME280;48717;55.556;37.816;2023-05-11T05:55:57;100101.00;;;16.31;35.36
62655;BME280;48717;55.556;37.816;2023-05-11T05:58:24;100102.00;;;16.24;35.61
62655;BME280;48717;55.556;37.816;2023-05-11T06:00:51;100099.63;;;16.08;35.90
62655;BME280;48717;55.556;37.816;2023-05-11T06:03:18;100105.69;;;16.16;36.28
62655;BME280;48717;55.556;37.816;2023-05-11T06:05:46;100096.19;;;16.04;36.13
62655;BME280;48717;55.556;37.816;2023-05-11T06:08:13;100103.22;;;16.07;36.39
62655;BME280;48717;55.556;37.816;2023-05-11T06:10:40;100102.31;;;16.08;36.43
62655;BME280;48717;55.556;37.816;2023-05-11T06:13:09;100108.47;;;16.10;36.22
62655;BME280;48717;55.556;37.816;2023-05-11T06:15:38;100120.69;;;16.21;36.04
62655;BME280;48717;55.556;37.816;2023-05-11T06:18:18;100116.97;;;16.31;35.83
62655;BME280;48717;55.556;37.816;2023-05-11T06:20:46;100113.38;;;16.32;35.94
62655;BME280;48717;55.556;37.816;2023-05-11T06:23:14;100122.94;;;16.41;35.40
62655;BME280;48717;55.556;37.816;2023-05-11T06:25:42;100123.59;;;16.54;35.64
62655;BME280;48717;55.556;37.816;2023-05-11T06:28:10;100112.06;;;16.53;36.24
62655;BME280;48717;55.556;37.816;2023-05-11T06:30:38;100096.97;;;16.54;36.24
62655;BME280;48717;55.556;37.816;2023-05-11T06:33:07;100140.59;;;16.89;35.90
62655;BME280;48717;55.556;37.816;2023-05-11T06:35:36;100128.63;;;17.09;35.05
62655;BME280;48717;55.556;37.816;2023-05-11T06:38:06;100135.25;;;17.30;32.92
62655;BME280;48717;55.556;37.816;2023-05-11T06:40:35;100132.00;;;17.54;32.01
62655;BME280;48717;55.556;37.816;2023-05-11T06:43:02;100118.50;;;17.61;31.16
62655;BME280;48717;55.556;37.816;2023-05-11T06:45:45;100112.47;;;17.55;31.17
62655;BME280;48717;55.556;37.816;2023-05-11T06:48:13;100124.06;;;17.87;31.43
62655;BME280;48717;55.556;37.816;2023-05-11T06:50:40;100132.44;;;18.08;30.68
62655;BME280;48717;55.556;37.816;2023-05-11T06:53:12;100114.91;;;17.97;30.80
62655;BME280;48717;55.556;37.816;2023-05-11T06:55:39;100132.53;;;18.03;29.83
62655;BME280;48717;55.556;37.816;2023-05-11T06:58:07;100126.06;;;18.13;30.28
62655;BME280;48717;55.556;37.816;2023-05-11T07:00:34;100121.00;;;18.36;29.93
62655;BME280;48717;55.556;37.816;2023-05-11T07:03:01;100116.22;;;18.47;30.69
62655;BME280;48717;55.556;37.816;2023-05-11T07:05:28;100110.13;;;18.42;29.80
62655;BME280;48717;55.556;37.816;2023-05-11T07:07:56;100110.13;;;18.42;30.37
62655;BME280;48717;55.556;37.816;2023-05-11T07:10:23;100132.22;;;18.47;30.20
62655;BME280;48717;55.556;37.816;2023-05-11T07:12:50;100123.72;;;18.66;29.30
62655;BME280;48717;55.556;37.816;2023-05-11T07:15:17;100126.34;;;18.96;29.04
62655;BME280;48717;55.556;37.816;2023-05-11T07:17:45;100124.91;;;19.70;26.88
62655;BME280;48717;55.556;37.816;2023-05-11T07:20:13;100123.09;;;20.47;26.31
62655;BME280;48717;55.556;37.816;2023-05-11T07:22:41;100109.59;;;20.50;26.39
62655;BME280;48717;55.556;37.816;2023-05-11T07:25:08;100123.19;;;20.20;26.11
62655;BME280;48717;55.556;37.816;2023-05-11T07:27:38;100125.53;;;19.78;26.50
62655;BME280;48717;55.556;37.816;2023-05-11T07:30:05;100129.50;;;19.39;27.02
62655;BME280;48717;55.556;37.816;2023-05-11T07:32:33;100111.09;;;18.71;27.71
62655;BME280;48717;55.556;37.816;2023-05-11T07:35:00;100130.72;;;18.70;28.03
62655;BME280;48717;55.556;37.816;2023-05-11T07:37:31;100138.69;;;19.00;28.09
62655;BME280;48717;55.556;37.816;2023-05-11T07:39:58;100137.34;;;19.44;28.53
62655;BME280;48717;55.556;37.816;2023-05-11T07:42:25;100126.16;;;19.60;27.86
62655;BME280;48717;55.556;37.816;2023-05-11T07:44:52;100124.16;;;19.92;27.11
62655;BME280;48717;55.556;37.816;2023-05-11T07:47:19;100122.41;;;20.18;27.30
62655;BME280;48717;55.556;37.816;2023-05-11T07:49:46;100131.53;;;20.61;27.03
62655;BME280;48717;55.556;37.816;2023-05-11T07:52:14;100124.88;;;21.18;25.90
62655;BME280;48717;55.556;37.816;2023-05-11T07:54:42;100103.28;;;21.66;24.82
62655;BME280;48717;55.556;37.816;2023-05-11T07:57:10;100075.19;;;21.96;24.31
62655;BME280;48717;55.556;37.816;2023-05-11T07:59:39;100112.38;;;22.45;23.70
62655;BME280;48717;55.556;37.816;2023-05-11T08:02:07;100120.97;;;22.73;23.47
62655;BME280;48717;55.556;37.816;2023-05-11T08:04:38;100109.50;;;22.88;23.65
62655;BME280;48717;55.556;37.816;2023-05-11T08:07:06;100118.72;;;22.63;23.66
62655;BME280;48717;55.556;37.816;2023-05-11T08:09:35;100115.50;;;21.94;24.55
62655;BME280;48717;55.556;37.816;2023-05-11T08:12:02;100114.56;;;21.52;24.90
62655;BME280;48717;55.556;37.816;2023-05-11T08:14:29;100107.06;;;21.17;25.50
62655;BME280;48717;55.556;37.816;2023-05-11T08:16:57;100118.97;;;20.62;26.27
62655;BME280;48717;55.556;37.816;2023-05-11T08:19:24;100127.53;;;20.72;25.65
62655;BME280;48717;55.556;37.816;2023-05-11T08:21:51;100124.97;;;20.69;25.69
62655;BME280;48717;55.556;37.816;2023-05-11T08:24:18;100102.81;;;20.41;25.80
62655;BME280;48717;55.556;37.816;2023-05-11T08:26:45;100117.03;;;20.18;26.32
62655;BME280;48717;55.556;37.816;2023-05-11T08:29:13;100127.91;;;19.86;27.16
62655;BME280;48717;55.556;37.816;2023-05-11T08:31:40;100136.50;;;19.43;27.79
62655;BME280;48717;55.556;37.816;2023-05-11T08:34:07;100111.72;;;18.79;28.32
62655;BME280;48717;55.556;37.816;2023-05-11T08:36:45;100128.56;;;18.82;28.17
62655;BME280;48717;55.556;37.816;2023-05-11T08:39:12;100128.66;;;18.78;28.61
62655;BME280;48717;55.556;37.816;2023-05-11T08:41:39;100113.81;;;18.98;28.39
62655;BME280;48717;55.556;37.816;2023-05-11T08:44:06;100119.34;;;19.49;28.36
62655;BME280;48717;55.556;37.816;2023-05-11T08:46:34;100111.22;;;19.79;27.43
62655;BME280;48717;55.556;37.816;2023-05-11T08:49:03;100111.09;;;20.33;26.91
62655;BME280;48717;55.556;37.816;2023-05-11T08:51:31;100109.44;;;20.55;26.78
62655;BME280;48717;55.556;37.816;2023-05-11T08:53:58;100119.69;;;20.43;26.30
62655;BME280;48717;55.556;37.816;2023-05-11T08:56:28;100123.06;;;19.99;26.60
62655;BME280;48717;55.556;37.816;2023-05-11T08:58:56;100132.22;;;19.09;27.56
62655;BME280;48717;55.556;37.816;2023-05-11T09:01:27;100134.09;;;18.45;28.90
62655;BME280;48717;55.556;37.816;2023-05-11T09:03:55;100095.16;;;18.05;29.51
62655;BME280;48717;55.556;37.816;2023-05-11T09:06:24;100114.09;;;17.95;29.96
62655;BME280;48717;55.556;37.816;2023-05-11T09:08:53;100091.69;;;17.68;30.18
62655;BME280;48717;55.556;37.816;2023-05-11T09:11:21;100108.47;;;17.71;30.26
62655;BME280;48717;55.556;37.816;2023-05-11T09:13:48;100109.84;;;17.15;32.29
62655;BME280;48717;55.556;37.816;2023-05-11T09:16:16;100092.44;;;16.99;32.98
62655;BME280;48717;55.556;37.816;2023-05-11T09:19:02;100099.75;;;17.28;32.38
62655;BME280;48717;55.556;37.816;2023-05-11T09:21:30;100099.03;;;17.58;32.10
62655;BME280;48717;55.556;37.816;2023-05-11T09:23:58;100097.66;;;17.78;31.81
62655;BME280;48717;55.556;37.816;2023-05-11T09:26:26;100101.63;;;17.61;32.55
62655;BME280;48717;55.556;37.816;2023-05-11T09:28:57;100085.50;;;17.66;32.26
62655;BME280;48717;55.556;37.816;2023-05-11T09:34:18;100082.84;;;18.62;30.92
62655;BME280;48717;55.556;37.816;2023-05-11T09:39:16;100077.06;;;21.07;27.32
62655;BME280;48717;55.556;37.816;2023-05-11T09:42:17;100051.28;;;21.89;25.69
62655;BME280;48717;55.556;37.816;2023-05-11T09:44:46;100069.72;;;22.58;25.00
62655;BME280;48717;55.556;37.816;2023-05-11T09:47:18;100039.25;;;23.14;24.09
62655;BME280;48717;55.556;37.816;2023-05-11T09:49:47;100015.63;;;23.73;23.24
62655;BME280;48717;55.556;37.816;2023-05-11T09:52:16;100012.47;;;24.33;22.67
62655;BME280;48717;55.556;37.816;2023-05-11T09:54:46;100019.09;;;25.08;21.71
62655;BME280;48717;55.556;37.816;2023-05-11T09:57:22;100023.47;;;24.94;21.86
62655;BME280;48717;55.556;37.816;2023-05-11T09:59:50;100018.94;;;24.95;21.27
62655;BME280;48717;55.556;37.816;2023-05-11T10:04:45;100009.38;;;25.96;20.56
62655;BME280;48717;55.556;37.816;2023-05-11T10:07:42;100006.28;;;26.31;19.32
62655;BME280;48717;55.556;37.816;2023-05-11T10:10:11;99997.78;;;26.08;19.21
62655;BME280;48717;55.556;37.816;2023-05-11T10:12:39;100009.25;;;26.41;19.16
62655;BME280;48717;55.556;37.816;2023-05-11T10:15:08;99998.25;;;26.15;19.23
62655;BME280;48717;55.556;37.816;2023-05-11T10:17:36;99994.22;;;26.22;18.92
62655;BME280;48717;55.556;37.816;2023-05-11T10:20:04;100003.84;;;26.83;18.63
62655;BME280;48717;55.556;37.816;2023-05-11T10:22:35;99987.97;;;27.19;18.11
62655;BME280;48717;55.556;37.816;2023-05-11T10:25:03;99997.03;;;26.63;18.56
62655;BME280;48717;55.556;37.816;2023-05-11T10:27:32;99987.34;;;26.73;18.33
62655;BME280;48717;55.556;37.816;2023-05-11T10:30:00;99973.94;;;26.99;18.04
62655;BME280;48717;55.556;37.816;2023-05-11T10:32:35;99996.50;;;27.13;18.42
62655;BME280;48717;55.556;37.816;2023-05-11T10:35:04;99985.72;;;27.39;17.98
62655;BME280;48717;55.556;37.816;2023-05-11T10:37:32;99964.22;;;27.76;17.78
62655;BME280;48717;55.556;37.816;2023-05-11T10:40:00;99972.63;;;26.64;18.06
62655;BME280;48717;55.556;37.816;2023-05-11T10:43:00;99986.97;;;26.08;18.81
62655;BME280;48717;55.556;37.816;2023-05-11T10:51:28;100016.31;;;23.06;22.54
62655;BME280;48717;55.556;37.816;2023-05-11T11:01:59;100013.00;;;18.76;30.71
62655;BME280;48717;55.556;37.816;2023-05-11T11:04:44;100062.47;;;17.63;33.46
62655;BME280;48717;55.556;37.816;2023-05-11T11:07:12;100067.66;;;16.55;37.45
62655;BME280;48717;55.556;37.816;2023-05-11T11:12:18;100081.25;;;15.97;39.21
62655;BME280;48717;55.556;37.816;2023-05-11T11:14:57;100095.50;;;15.91;37.87
62655;BME280;48717;55.556;37.816;2023-05-11T11:17:29;100091.72;;;15.56;39.72
62655;BME280;48717;55.556;37.816;2023-05-11T11:19:58;100107.91;;;15.40;41.83
62655;BME280;48717;55.556;37.816;2023-05-11T11:25:09;100121.09;;;14.88;44.39
62655;BME280;48717;55.556;37.816;2023-05-11T11:30:16;100098.13;;;14.10;49.74
62655;BME280;48717;55.556;37.816;2023-05-11T11:32:45;100047.41;;;13.58;51.35
62655;BME280;48717;55.556;37.816;2023-05-11T11:40:37;100018.72;;;13.05;50.06
62655;BME280;48717;55.556;37.816;2023-05-11T11:45:56;100027.72;;;13.83;48.04
62655;BME280;48717;55.556;37.816;2023-05-11T11:48:36;100024.25;;;15.13;45.59
62655;BME280;48717;55.556;37.816;2023-05-11T11:51:12;100021.34;;;17.01;41.42
62655;BME280;48717;55.556;37.816;2023-05-11T11:53:57;100011.19;;;19.33;37.06
62655;BME280;48717;55.556;37.816;2023-05-11T11:58:58;100025.53;;;22.45;30.93
62655;BME280;48717;55.556;37.816;2023-05-11T12:01:34;100005.00;;;23.70;28.80
62655;BME280;48717;55.556;37.816;2023-05-11T12:04:25;100020.63;;;25.12;26.36
62655;BME280;48717;55.556;37.816;2023-05-11T12:06:57;100009.25;;;26.41;24.92
62655;BME280;48717;55.556;37.816;2023-05-11T12:09:25;100004.06;;;27.07;22.62
62655;BME280;48717;55.556;37.816;2023-05-11T12:11:53;100006.75;;;26.38;22.25
62655;BME280;48717;55.556;37.816;2023-05-11T12:14:22;100009.34;;;25.66;22.98
62655;BME280;48717;55.556;37.816;2023-05-11T12:17:02;100015.59;;;24.73;24.80
62655;BME280;48717;55.556;37.816;2023-05-11T12:19:30;100008.50;;;23.72;25.43
62655;BME280;48717;55.556;37.816;2023-05-11T12:21:57;100005.31;;;23.11;26.26
62655;BME280;48717;55.556;37.816;2023-05-11T12:24:24;99995.19;;;22.99;26.24
62655;BME280;48717;55.556;37.816;2023-05-11T12:26:54;99994.19;;;23.54;25.61
62655;BME280;48717;55.556;37.816;2023-05-11T12:29:23;99988.41;;;24.78;24.00
62655;BME280;48717;55.556;37.816;2023-05-11T12:31:50;99984.88;;;25.84;22.37
62655;BME280;48717;55.556;37.816;2023-05-11T12:34:20;99984.19;;;26.39;21.69
62655;BME280;48717;55.556;37.816;2023-05-11T12:36:52;99972.56;;;26.79;20.87
62655;BME280;48717;55.556;37.816;2023-05-11T12:39:26;99967.50;;;27.15;20.67
62655;BME280;48717;55.556;37.816;2023-05-11T12:41:55;99967.44;;;27.55;20.02
62655;BME280;48717;55.556;37.816;2023-05-11T12:44:24;99974.69;;;28.57;18.89
62655;BME280;48717;55.556;37.816;2023-05-11T12:46:53;99981.03;;;29.54;18.11
62655;BME280;48717;55.556;37.816;2023-05-11T12:49:22;99978.09;;;30.03;17.32
62655;BME280;48717;55.556;37.816;2023-05-11T12:54:33;99992.94;;;29.99;16.87
62655;BME280;48717;55.556;37.816;2023-05-11T12:57:01;99966.38;;;28.72;18.11
62655;BME280;48717;55.556;37.816;2023-05-11T12:59:38;99980.34;;;29.03;17.97
62655;BME280;48717;55.556;37.816;2023-05-11T13:02:10;99982.22;;;28.78;18.24
62655;BME280;48717;55.556;37.816;2023-05-11T13:04:40;99976.84;;;27.36;19.54
62655;BME280;48717;55.556;37.816;2023-05-11T13:07:07;99972.91;;;26.03;21.08
62655;BME280;48717;55.556;37.816;2023-05-11T13:09:35;99987.44;;;24.79;22.41
62655;BME280;48717;55.556;37.816;2023-05-11T13:12:16;99988.56;;;23.77;23.95
62655;BME280;48717;55.556;37.816;2023-05-11T13:14:49;99980.66;;;23.20;25.08
62655;BME280;48717;55.556;37.816;2023-05-11T13:17:29;99983.97;;;23.26;25.41
62655;BME280;48717;55.556;37.816;2023-05-11T13:20:14;99974.59;;;24.52;24.09
62655;BME280;48717;55.556;37.816;2023-05-11T13:22:42;99982.75;;;24.34;24.15
62655;BME280;48717;55.556;37.816;2023-05-11T13:25:18;99977.19;;;23.54;25.28
62655;BME280;48717;55.556;37.816;2023-05-11T13:27:52;99987.91;;;22.83;26.09
62655;BME280;48717;55.556;37.816;2023-05-11T13:39:49;100000.31;;;20.82;28.99
62655;BME280;48717;55.556;37.816;2023-05-11T13:42:16;99994.63;;;20.68;29.29
62655;BME280;48717;55.556;37.816;2023-05-11T13:44:43;99987.72;;;20.84;29.47
62655;BME280;48717;55.556;37.816;2023-05-11T13:47:10;99980.97;;;20.98;29.43
62655;BME280;48717;55.556;37.816;2023-05-11T13:49:37;99988.13;;;20.97;29.34
62655;BME280;48717;55.556;37.816;2023-05-11T13:52:05;99953.63;;;21.31;28.71
62655;BME280;48717;55.556;37.816;2023-05-11T13:54:32;99978.53;;;22.73;26.62
62655;BME280;48717;55.556;37.816;2023-05-11T13:57:00;99968.78;;;23.94;24.53
62655;BME280;48717;55.556;37.816;2023-05-11T13:59:27;99960.63;;;25.08;23.05